IXA Airport (Halifax-Northampton Rgnl) Information

FAA: IXA - ICAO: KIXA

IXA Airport Location

State North Carolina
County Halifax
City Roanoke Rapids
IXA Airport is 8 miles south of Roanoke Rapids, NC.
Latitude 36-19-47.2500N
Longitude 077-38-06.8310W
Elevation 144ft

KIXA Airport METARs

METAR KIXA 181355Z AUTO 26004KT 10SM CLR 00/M02 A3012 RMK AO2
Altimeter 30.12"
Temperature 0.0°C (32.0°F)
Wind 260° at 4KT
Clouds Skies are clear.
Visibility 10.0mi
Time observed: 2022-01-18T13:55:00Z

IXA Airport Details

Status Operational
Activation February 2009
Ownership Public
Usage Public
Chart WASHINGTON
ATC on-site No
Beacon schedule sunset-sunrise
Beacon color clear green

IXA Airport Contacts

Owner HALIFAX-NORTHAMPTON RGNL ARPT AUTH
Owner address 10 NORTH KING ST., HALIFAX, NC 27839
Owner phone 252-583-1131
Manager JOHN CIOLINO
Manager address 245 FINE STREET, GOLD HILL, NC 28071
Manager phone (704) 209-1962

IXA Airport (Halifax-Northampton Rgnl) Radio Frequencies

IXA (Airport) Radio Frequencies

UNICOM 123.075
Common traffic advisory frequency (CTAF) 123.075